Time;durP1;ratioP1;P1;durP2;ratioP2;P2;SDS_P1;SDS_P2;PMS_P1;PMS_P2;Temp;Humidity;BMP_temperature;BMP_pressure;BME280_temperature;BME280_humidity;BME280_pressure;Samples;Min_cycle;Max_cycle;Signal;HPM_P1;HPM_P2
2023/04/08 00:00:33;;;;;;;;;;;4.90;99.90;;;;;;4981547;28;90477;-31
2023/04/08 00:02:58;;;;;;;;;;;4.80;99.90;;;;;;5026709;22;90938;-33
2023/04/08 00:05:24;;;;;;;;;;;4.70;99.90;;;;;;5021135;28;88989;-34
2023/04/08 00:07:50;;;;;;;;;;;4.80;99.90;;;;;;5019031;27;88529;-34
2023/04/08 00:10:15;;;;;;;;;;;4.70;99.90;;;;;;5020165;27;90208;-34
2023/04/08 00:12:41;;;;;;;;;;;4.70;99.90;;;;;;5018608;28;90794;-30
2023/04/08 00:15:06;;;;;;;;;;;4.80;99.90;;;;;;5020071;28;90952;-32
2023/04/08 00:17:32;;;;;;;;;;;4.80;99.90;;;;;;5020105;27;88440;-32
2023/04/08 00:19:57;;;;;;;;;;;4.70;99.90;;;;;;5019030;27;90836;-34
2023/04/08 00:22:23;;;;;;;;;;;4.80;99.90;;;;;;5018341;28;89273;-33
2023/04/08 00:24:48;;;;;;;;;;;4.80;99.90;;;;;;5014263;28;90387;-33
2023/04/08 00:27:14;;;;;;;;;;;4.80;99.90;;;;;;5018858;28;88574;-34
2023/04/08 00:29:39;;;;;;;;;;;4.80;99.90;;;;;;5017253;27;91837;-33
2023/04/08 00:32:06;;;;;;;;;;;4.80;99.90;;;;;;5003860;28;89750;-33
2023/04/08 00:34:31;;;;;;;;;;;4.70;99.90;;;;;;5002725;28;90478;-32
2023/04/08 00:36:57;;;;;;;;;;;4.70;99.90;;;;;;5004167;28;89900;-33
2023/04/08 00:39:22;;;;;;;;;;;4.60;99.90;;;;;;5005262;28;90544;-33
2023/04/08 00:41:48;;;;;;;;;;;4.60;99.90;;;;;;5004471;28;90247;-33
2023/04/08 00:44:14;;;;;;;;;;;4.60;99.90;;;;;;5010815;28;89159;-35
2023/04/08 00:46:39;;;;;;;;;;;4.50;99.90;;;;;;5010682;27;89394;-35
2023/04/08 00:49:06;;;;;;;;;;;4.50;99.90;;;;;;5004023;28;90878;-31
2023/04/08 00:51:32;;;;;;;;;;;4.40;99.90;;;;;;5004469;28;89697;-34
2023/04/08 00:53:59;;;;;;;;;;;4.40;99.90;;;;;;5004534;28;87632;-33
2023/04/08 00:56:25;;;;;;;;;;;4.40;99.90;;;;;;5003438;28;89622;-31
2023/04/08 00:58:53;;;;;;;;;;;4.30;99.90;;;;;;5004342;28;90660;-32
2023/04/08 01:01:24;;;;;;;;;;;4.20;99.90;;;;;;5004060;28;89298;-33
2023/04/08 01:03:50;;;;;;;;;;;4.20;99.90;;;;;;5003516;28;90021;-34
2023/04/08 01:06:21;;;;;;;;;;;4.10;99.90;;;;;;5005094;28;87884;-34
2023/04/08 01:08:48;;;;;;;;;;;4.10;99.90;;;;;;5003706;28;89747;-31
2023/04/08 01:11:14;;;;;;;;;;;4.10;99.90;;;;;;5004221;28;89602;-34
2023/04/08 01:13:41;;;;;;;;;;;4.10;99.90;;;;;;5003841;28;88534;-33
2023/04/08 01:16:09;;;;;;;;;;;4.00;99.90;;;;;;5005144;28;88788;-30
2023/04/08 01:18:35;;;;;;;;;;;4.00;99.90;;;;;;5003229;28;90340;-34
2023/04/08 01:21:01;;;;;;;;;;;4.00;99.90;;;;;;5015958;28;89669;-33
2023/04/08 01:23:53;;;;;;;;;;;4.00;99.90;;;;;;5012583;28;89085;-31
2023/04/08 01:26:23;;;;;;;;;;;3.90;99.90;;;;;;5002826;28;91003;-34
2023/04/08 01:28:56;;;;;;;;;;;3.90;99.90;;;;;;5003112;28;90257;-35
2023/04/08 01:31:22;;;;;;;;;;;3.80;99.90;;;;;;4990808;28;90167;-33
2023/04/08 01:33:49;;;;;;;;;;;3.70;99.90;;;;;;5001798;28;89735;-32
2023/04/08 01:36:15;;;;;;;;;;;3.70;99.90;;;;;;5004811;28;89444;-32
2023/04/08 01:38:41;;;;;;;;;;;3.60;99.90;;;;;;5003554;28;91609;-33
2023/04/08 01:41:07;;;;;;;;;;;3.60;99.90;;;;;;5003920;28;88633;-32
2023/04/08 01:43:34;;;;;;;;;;;3.60;99.90;;;;;;5004352;28;89274;-35
2023/04/08 01:46:00;;;;;;;;;;;3.60;99.90;;;;;;5003223;28;88995;-34
2023/04/08 01:48:26;;;;;;;;;;;3.50;99.90;;;;;;5004610;28;90517;-31
2023/04/08 01:50:52;;;;;;;;;;;3.50;99.90;;;;;;5001910;28;90350;-31
2023/04/08 01:53:18;;;;;;;;;;;3.50;99.90;;;;;;5004353;28;90027;-32
2023/04/08 01:55:44;;;;;;;;;;;3.50;99.90;;;;;;5002072;28;87697;-35
2023/04/08 01:58:11;;;;;;;;;;;3.50;99.90;;;;;;5003473;28;90142;-33
2023/04/08 02:00:37;;;;;;;;;;;3.50;99.90;;;;;;5003404;28;89788;-33
2023/04/08 02:03:04;;;;;;;;;;;3.40;99.90;;;;;;5003810;28;90527;-32
2023/04/08 02:05:30;;;;;;;;;;;3.40;99.90;;;;;;5003824;28;89126;-35
2023/04/08 02:07:55;;;;;;;;;;;3.40;99.90;;;;;;5004722;28;88275;-32
2023/04/08 02:10:21;;;;;;;;;;;3.40;99.90;;;;;;5003131;28;89658;-31
2023/04/08 02:12:47;;;;;;;;;;;3.40;99.90;;;;;;5002805;28;88971;-33
2023/04/08 02:15:13;;;;;;;;;;;3.40;99.90;;;;;;5003124;28;89843;-32
2023/04/08 02:17:42;;;;;;;;;;;3.30;99.90;;;;;;5002698;28;90498;-32
2023/04/08 02:20:17;;;;;;;;;;;3.30;99.90;;;;;;5002982;28;89340;-32
2023/04/08 02:22:57;;;;;;;;;;;3.30;99.90;;;;;;5005742;28;88776;-32
2023/04/08 02:25:23;;;;;;;;;;;3.20;99.90;;;;;;5010184;28;89022;-34
2023/04/08 02:27:50;;;;;;;;;;;3.20;99.90;;;;;;5002123;28;92058;-33
2023/04/08 02:30:16;;;;;;;;;;;3.20;99.90;;;;;;5002327;28;90707;-34
2023/04/08 02:32:42;;;;;;;;;;;3.20;99.90;;;;;;5020427;28;89108;-31
2023/04/08 02:35:08;;;;;;;;;;;3.10;99.90;;;;;;5022539;27;89217;-30
2023/04/08 02:37:34;;;;;;;;;;;3.10;99.90;;;;;;5020803;27;90185;-35
2023/04/08 02:39:59;;;;;;;;;;;3.10;99.90;;;;;;5020599;27;90274;-32
2023/04/08 02:42:25;;;;;;;;;;;3.00;99.90;;;;;;5021174;27;90500;-33
2023/04/08 02:44:50;;;;;;;;;;;3.00;99.90;;;;;;5021980;28;88691;-34
2023/04/08 02:47:16;;;;;;;;;;;3.00;99.90;;;;;;5020853;27;91843;-34
2023/04/08 02:49:41;;;;;;;;;;;3.00;99.90;;;;;;5021378;28;89752;-33
2023/04/08 02:52:07;;;;;;;;;;;3.00;99.90;;;;;;5021415;28;89085;-30
2023/04/08 02:54:32;;;;;;;;;;;3.00;99.90;;;;;;5022255;27;88830;-30
2023/04/08 02:56:58;;;;;;;;;;;2.90;99.90;;;;;;5004370;28;90514;-35
2023/04/08 02:59:23;;;;;;;;;;;2.90;99.90;;;;;;5001659;28;89583;-32
2023/04/08 03:01:49;;;;;;;;;;;2.90;99.90;;;;;;5002021;28;89817;-36
2023/04/08 03:04:15;;;;;;;;;;;2.90;99.90;;;;;;5002346;28;89767;-33
2023/04/08 03:06:40;;;;;;;;;;;2.90;99.90;;;;;;5014791;28;90406;-33
2023/04/08 03:09:06;;;;;;;;;;;2.90;99.90;;;;;;5002076;28;89901;-33
2023/04/08 03:11:32;;;;;;;;;;;2.90;99.90;;;;;;5001862;28;89086;-32
2023/04/08 03:13:57;;;;;;;;;;;2.90;99.90;;;;;;5002294;28;89000;-35
2023/04/08 03:16:23;;;;;;;;;;;2.90;99.90;;;;;;5001261;28;89277;-33
2023/04/08 03:18:49;;;;;;;;;;;2.90;99.90;;;;;;5002116;28;89168;-36
2023/04/08 03:21:15;;;;;;;;;;;2.90;99.90;;;;;;5003628;28;88956;-32
2023/04/08 03:23:40;;;;;;;;;;;2.90;99.90;;;;;;5013105;28;89777;-31
2023/04/08 03:26:06;;;;;;;;;;;2.80;99.90;;;;;;5020417;28;90475;-32
2023/04/08 03:28:31;;;;;;;;;;;2.90;99.90;;;;;;5009703;28;90841;-31
2023/04/08 03:30:57;;;;;;;;;;;2.90;99.90;;;;;;5001761;28;90247;-33
2023/04/08 03:33:22;;;;;;;;;;;2.90;99.90;;;;;;5002107;28;88199;-34
2023/04/08 03:35:48;;;;;;;;;;;2.80;99.90;;;;;;5001213;28;90280;-31
2023/04/08 03:38:13;;;;;;;;;;;2.80;99.90;;;;;;5001823;28;89672;-33
2023/04/08 03:40:39;;;;;;;;;;;2.80;99.90;;;;;;5001825;28;87749;-33
2023/04/08 03:43:05;;;;;;;;;;;2.70;99.90;;;;;;5003306;28;89902;-31
2023/04/08 03:45:31;;;;;;;;;;;2.70;99.90;;;;;;5001910;28;88150;-34
2023/04/08 03:47:56;;;;;;;;;;;2.70;99.90;;;;;;5001115;28;89710;-32
2023/04/08 03:50:22;;;;;;;;;;;2.70;99.90;;;;;;4999153;28;90309;-35
2023/04/08 03:52:47;;;;;;;;;;;2.70;99.90;;;;;;5001654;28;89362;-32
2023/04/08 03:55:13;;;;;;;;;;;2.60;99.90;;;;;;5018372;28;91357;-31
2023/04/08 03:57:38;;;;;;;;;;;2.70;99.90;;;;;;5020436;28;90092;-33
2023/04/08 04:00:04;;;;;;;;;;;2.70;99.90;;;;;;5016070;27;89638;-34
2023/04/08 04:02:30;;;;;;;;;;;2.70;99.90;;;;;;5000420;28;89269;-34
2023/04/08 04:04:55;;;;;;;;;;;2.70;99.90;;;;;;5004531;28;89917;-31
2023/04/08 04:07:21;;;;;;;;;;;2.70;99.90;;;;;;5011041;28;91508;-31
2023/04/08 04:09:46;;;;;;;;;;;2.70;99.90;;;;;;5017009;28;90158;-32
2023/04/08 04:12:12;;;;;;;;;;;2.80;99.90;;;;;;5021405;27;88563;-33
2023/04/08 04:14:37;;;;;;;;;;;2.80;99.90;;;;;;5018587;27;90123;-32
2023/04/08 04:17:03;;;;;;;;;;;2.80;99.90;;;;;;5020213;28;90627;-30
2023/04/08 04:19:29;;;;;;;;;;;2.80;99.90;;;;;;5018594;28;90096;-31
2023/04/08 04:21:54;;;;;;;;;;;2.80;99.90;;;;;;5020286;28;88358;-33
2023/04/08 04:24:20;;;;;;;;;;;2.80;99.90;;;;;;5019458;28;90218;-35
2023/04/08 04:26:45;;;;;;;;;;;2.80;99.90;;;;;;5020075;28;90197;-35
2023/04/08 04:29:11;;;;;;;;;;;2.80;99.90;;;;;;5003628;28;88918;-34
2023/04/08 04:31:36;;;;;;;;;;;2.80;99.90;;;;;;4999479;28;89623;-35
2023/04/08 04:34:02;;;;;;;;;;;2.80;99.90;;;;;;5000368;28;90286;-34
2023/04/08 04:36:27;;;;;;;;;;;2.80;99.90;;;;;;5000603;28;89728;-34
2023/04/08 04:38:53;;;;;;;;;;;2.80;99.90;;;;;;5000637;28;89236;-33
2023/04/08 04:41:18;;;;;;;;;;;2.90;99.90;;;;;;4999866;28;90228;-32
2023/04/08 04:43:44;;;;;;;;;;;2.90;99.90;;;;;;5002072;28;90287;-31
2023/04/08 04:46:10;;;;;;;;;;;2.90;99.90;;;;;;5001349;28;89973;-33
2023/04/08 04:48:35;;;;;;;;;;;3.00;99.90;;;;;;5002326;28;88600;-36
2023/04/08 04:51:02;;;;;;;;;;;3.00;99.90;;;;;;5001608;28;88610;-31
2023/04/08 04:53:28;;;;;;;;;;;3.00;99.90;;;;;;5000896;28;90124;-32
2023/04/08 04:55:54;;;;;;;;;;;3.00;99.90;;;;;;5001274;28;89912;-31
2023/04/08 04:58:20;;;;;;;;;;;3.00;99.90;;;;;;5000443;28;89571;-31
2023/04/08 05:00:45;;;;;;;;;;;3.00;99.90;;;;;;5000458;28;89242;-32
2023/04/08 05:03:11;;;;;;;;;;;3.10;99.90;;;;;;5001988;28;90061;-35
2023/04/08 05:05:37;;;;;;;;;;;3.10;99.90;;;;;;5000403;28;89599;-34
2023/04/08 05:08:02;;;;;;;;;;;3.10;99.90;;;;;;5001848;28;90542;-32
2023/04/08 05:10:28;;;;;;;;;;;3.10;99.90;;;;;;5002632;28;89466;-31
2023/04/08 05:12:53;;;;;;;;;;;3.10;99.90;;;;;;5005808;28;90213;-33
2023/04/08 05:15:19;;;;;;;;;;;3.10;99.90;;;;;;5004763;28;89617;-31
2023/04/08 05:17:45;;;;;;;;;;;3.20;99.90;;;;;;5004866;28;89358;-32
2023/04/08 05:20:11;;;;;;;;;;;3.10;99.90;;;;;;5004451;28;89311;-31
2023/04/08 05:22:36;;;;;;;;;;;3.10;99.90;;;;;;5007608;28;89659;-31
2023/04/08 05:25:02;;;;;;;;;;;3.20;99.90;;;;;;5022842;28;89358;-33
2023/04/08 05:27:27;;;;;;;;;;;3.20;99.90;;;;;;5022339;27;89941;-33
2023/04/08 05:29:53;;;;;;;;;;;3.20;99.90;;;;;;5022972;27;88966;-30
2023/04/08 05:32:18;;;;;;;;;;;3.30;99.90;;;;;;5023498;27;90279;-31
2023/04/08 05:34:44;;;;;;;;;;;3.30;99.90;;;;;;5022757;28;88985;-32
2023/04/08 05:37:09;;;;;;;;;;;3.40;99.90;;;;;;5023209;27;88828;-35
2023/04/08 05:39:35;;;;;;;;;;;3.40;99.90;;;;;;5023098;28;87454;-33
2023/04/08 05:42:01;;;;;;;;;;;3.50;99.90;;;;;;5022648;27;90803;-31
2023/04/08 05:44:26;;;;;;;;;;;3.50;99.90;;;;;;5022534;27;89842;-32
2023/04/08 05:46:52;;;;;;;;;;;3.50;99.90;;;;;;5022380;28;89140;-33
2023/04/08 05:49:18;;;;;;;;;;;3.50;99.90;;;;;;5023127;27;88924;-33
2023/04/08 05:51:43;;;;;;;;;;;3.60;99.90;;;;;;5021693;27;89104;-33
2023/04/08 05:54:09;;;;;;;;;;;3.70;99.90;;;;;;5022079;28;90613;-32
2023/04/08 05:56:34;;;;;;;;;;;3.70;99.90;;;;;;5022672;28;88513;-32
2023/04/08 05:59:00;;;;;;;;;;;3.80;99.90;;;;;;5023342;27;89826;-31
2023/04/08 06:01:26;;;;;;;;;;;3.90;99.90;;;;;;5021960;27;90507;-34
2023/04/08 06:03:51;;;;;;;;;;;4.00;99.90;;;;;;5021939;28;88278;-31
2023/04/08 06:06:17;;;;;;;;;;;4.10;99.90;;;;;;5021919;28;89028;-31
2023/04/08 06:08:43;;;;;;;;;;;4.20;99.90;;;;;;5022071;27;89559;-30
2023/04/08 06:11:08;;;;;;;;;;;4.40;99.90;;;;;;5022029;27;90294;-32
2023/04/08 06:13:34;;;;;;;;;;;4.40;99.90;;;;;;5022916;27;89608;-33
2023/04/08 06:16:09;;;;;;;;;;;4.50;99.90;;;;;;5022553;28;88702;-31
2023/04/08 06:18:34;;;;;;;;;;;4.70;99.90;;;;;;5021946;27;89860;-32
2023/04/08 06:21:00;;;;;;;;;;;4.80;99.90;;;;;;5021221;28;89809;-31
2023/04/08 06:23:25;;;;;;;;;;;4.80;99.90;;;;;;5021931;27;89602;-32
2023/04/08 06:25:52;;;;;;;;;;;4.90;99.90;;;;;;5006619;28;89650;-32
2023/04/08 06:28:17;;;;;;;;;;;4.90;99.90;;;;;;5003282;28;88972;-33
2023/04/08 06:30:43;;;;;;;;;;;5.00;99.90;;;;;;5001258;28;89278;-32
2023/04/08 06:33:09;;;;;;;;;;;5.00;99.90;;;;;;5002888;28;89713;-34
2023/04/08 06:35:36;;;;;;;;;;;5.20;99.90;;;;;;5003259;28;89189;-35
2023/04/08 06:38:01;;;;;;;;;;;5.20;99.90;;;;;;5002761;28;88103;-35
2023/04/08 06:40:27;;;;;;;;;;;5.20;99.90;;;;;;5002038;28;89793;-33
2023/04/08 06:42:53;;;;;;;;;;;5.20;99.90;;;;;;5001268;28;90979;-35
2023/04/08 06:45:18;;;;;;;;;;;5.30;99.90;;;;;;5003431;28;89529;-32
2023/04/08 06:47:44;;;;;;;;;;;5.50;99.90;;;;;;5017879;27;87653;-30
2023/04/08 06:50:10;;;;;;;;;;;5.60;99.90;;;;;;5008492;28;90250;-33
2023/04/08 06:52:35;;;;;;;;;;;5.60;99.90;;;;;;5017666;28;89344;-31
2023/04/08 06:55:01;;;;;;;;;;;5.70;99.90;;;;;;5012705;28;88757;-34
2023/04/08 06:57:26;;;;;;;;;;;5.80;99.90;;;;;;5018428;28;89298;-32
2023/04/08 06:59:52;;;;;;;;;;;5.90;99.90;;;;;;5013322;28;91025;-33
2023/04/08 07:02:18;;;;;;;;;;;6.00;99.90;;;;;;5018251;27;89303;-33
2023/04/08 07:04:43;;;;;;;;;;;6.20;99.90;;;;;;5012537;28;88614;-31
2023/04/08 07:07:09;;;;;;;;;;;6.30;99.90;;;;;;5017031;27;88201;-32
2023/04/08 07:09:35;;;;;;;;;;;6.40;99.90;;;;;;5013317;27;90187;-32
2023/04/08 07:12:02;;;;;;;;;;;6.40;99.90;;;;;;5017757;27;89576;-35
2023/04/08 07:14:28;;;;;;;;;;;6.30;99.90;;;;;;5013724;28;90064;-36
2023/04/08 07:16:55;;;;;;;;;;;6.10;99.90;;;;;;5018310;27;89164;-34
2023/04/08 07:19:21;;;;;;;;;;;6.10;99.90;;;;;;5014167;28;90910;-35
2023/04/08 07:21:47;;;;;;;;;;;6.30;99.90;;;;;;5017654;28;89272;-35
2023/04/08 07:24:12;;;;;;;;;;;6.40;99.90;;;;;;5013933;28;88500;-31
2023/04/08 07:26:38;;;;;;;;;;;6.60;99.90;;;;;;5001917;28;90151;-33
2023/04/08 07:29:03;;;;;;;;;;;6.80;99.90;;;;;;5001104;28;91190;-33
2023/04/08 07:31:29;;;;;;;;;;;6.80;99.90;;;;;;5000948;28;90359;-35
2023/04/08 07:33:54;;;;;;;;;;;6.90;99.90;;;;;;5002185;28;89082;-32
2023/04/08 07:36:20;;;;;;;;;;;6.80;99.90;;;;;;5001394;28;87680;-32
2023/04/08 07:38:46;;;;;;;;;;;6.90;99.90;;;;;;5001151;28;89706;-33
2023/04/08 07:41:11;;;;;;;;;;;6.90;99.90;;;;;;5001661;28;89736;-30
2023/04/08 07:43:37;;;;;;;;;;;6.80;99.90;;;;;;4999810;28;88599;-34
2023/04/08 07:46:04;;;;;;;;;;;6.70;99.90;;;;;;4999422;28;88970;-34
2023/04/08 07:48:30;;;;;;;;;;;6.80;99.90;;;;;;4999816;28;90054;-33
2023/04/08 07:50:56;;;;;;;;;;;6.80;99.90;;;;;;4998482;28;89948;-34
2023/04/08 07:53:23;;;;;;;;;;;7.20;99.90;;;;;;5014339;28;89879;-33
2023/04/08 07:55:49;;;;;;;;;;;7.30;99.90;;;;;;5018428;28;89775;-32
2023/04/08 07:58:15;;;;;;;;;;;7.30;99.90;;;;;;5004053;28;90994;-33
2023/04/08 08:00:40;;;;;;;;;;;7.30;99.90;;;;;;5008324;28;89690;-31
2023/04/08 08:03:06;;;;;;;;;;;7.50;99.90;;;;;;5002303;28;89963;-34
2023/04/08 08:05:31;;;;;;;;;;;7.60;99.90;;;;;;4999891;28;89791;-32
2023/04/08 08:07:58;;;;;;;;;;;7.40;99.90;;;;;;4999153;28;90171;-32
2023/04/08 08:10:23;;;;;;;;;;;7.40;99.90;;;;;;5018433;28;89732;-32
2023/04/08 08:12:49;;;;;;;;;;;7.40;99.90;;;;;;4995066;28;90113;-32
2023/04/08 08:15:14;;;;;;;;;;;7.60;99.90;;;;;;4997536;28;88924;-33
2023/04/08 08:17:40;;;;;;;;;;;7.30;99.90;;;;;;4999568;28;89903;-32
2023/04/08 08:20:06;;;;;;;;;;;7.20;99.90;;;;;;4996563;28;90448;-31
2023/04/08 08:22:31;;;;;;;;;;;7.40;99.90;;;;;;5002495;28;91274;-34
2023/04/08 08:24:57;;;;;;;;;;;7.50;99.90;;;;;;5017998;28;89737;-35
2023/04/08 08:27:22;;;;;;;;;;;7.50;99.90;;;;;;5016995;27;90036;-33
2023/04/08 08:29:48;;;;;;;;;;;7.40;99.90;;;;;;5006089;28;90670;-31
2023/04/08 08:32:13;;;;;;;;;;;7.20;99.90;;;;;;5003902;27;89402;-32
2023/04/08 08:34:39;;;;;;;;;;;7.20;99.90;;;;;;5018873;28;89169;-35
2023/04/08 08:37:04;;;;;;;;;;;7.30;99.90;;;;;;5003565;28;90093;-32
2023/04/08 08:39:30;;;;;;;;;;;7.50;99.90;;;;;;4999050;28;89415;-34
2023/04/08 08:41:56;;;;;;;;;;;7.50;99.90;;;;;;4998528;28;89838;-35
2023/04/08 08:44:22;;;;;;;;;;;7.30;99.90;;;;;;4998441;28;89327;-32
2023/04/08 08:46:47;;;;;;;;;;;7.40;99.90;;;;;;5001310;28;91045;-31
2023/04/08 08:49:13;;;;;;;;;;;7.50;99.90;;;;;;5002031;28;89966;-32
2023/04/08 08:51:39;;;;;;;;;;;7.60;99.90;;;;;;5001872;28;89037;-33
2023/04/08 08:54:04;;;;;;;;;;;7.60;99.90;;;;;;5002217;28;87863;-31
2023/04/08 08:56:31;;;;;;;;;;;7.50;99.90;;;;;;5002433;28;90143;-33
2023/04/08 08:58:57;;;;;;;;;;;7.50;99.90;;;;;;5002335;28;89903;-35
2023/04/08 09:01:43;;;;;;;;;;;7.60;99.90;;;;;;5001713;28;89758;-32
2023/04/08 09:04:10;;;;;;;;;;;7.80;99.90;;;;;;5002007;28;89837;-35
2023/04/08 09:06:36;;;;;;;;;;;7.80;99.90;;;;;;5002695;28;90306;-31
2023/04/08 09:09:04;;;;;;;;;;;7.60;99.90;;;;;;5010081;28;90592;-33
2023/04/08 09:11:30;;;;;;;;;;;7.60;99.90;;;;;;5002899;28;89376;-33
2023/04/08 09:13:56;;;;;;;;;;;7.60;99.90;;;;;;5003257;28;89020;-32
2023/04/08 09:16:22;;;;;;;;;;;7.50;99.90;;;;;;5003857;28;90155;-32
2023/04/08 09:18:48;;;;;;;;;;;7.50;99.90;;;;;;5002565;28;89529;-36
2023/04/08 09:21:15;;;;;;;;;;;7.60;99.90;;;;;;5003356;28;90546;-32
2023/04/08 09:23:45;;;;;;;;;;;7.50;99.90;;;;;;5013729;28;88023;-33
2023/04/08 09:26:15;;;;;;;;;;;7.40;99.90;;;;;;5021147;28;90857;-30
2023/04/08 09:28:41;;;;;;;;;;;7.50;99.90;;;;;;5020618;27;89153;-32
2023/04/08 09:31:22;;;;;;;;;;;7.50;99.90;;;;;;5021213;27;89665;-31
2023/04/08 09:33:48;;;;;;;;;;;7.40;99.90;;;;;;5019692;28;88563;-31
2023/04/08 09:36:14;;;;;;;;;;;7.50;99.90;;;;;;5013600;27;88643;-34
2023/04/08 09:38:40;;;;;;;;;;;7.50;99.90;;;;;;5001876;28;89636;-34
2023/04/08 09:41:07;;;;;;;;;;;7.40;99.90;;;;;;5020668;27;88995;-33
2023/04/08 09:43:35;;;;;;;;;;;7.40;99.90;;;;;;5020852;27;87614;-34
2023/04/08 09:46:03;;;;;;;;;;;7.50;99.90;;;;;;5020311;27;91595;-32
2023/04/08 09:48:31;;;;;;;;;;;7.60;99.90;;;;;;5019526;27;89746;-33
2023/04/08 09:50:58;;;;;;;;;;;7.60;99.90;;;;;;5020167;27;89703;-32
2023/04/08 09:53:35;;;;;;;;;;;7.50;99.90;;;;;;5020181;27;87678;-33
2023/04/08 09:56:04;;;;;;;;;;;7.60;99.90;;;;;;5015154;27;90687;-32
2023/04/08 09:58:37;;;;;;;;;;;7.60;99.90;;;;;;5015386;28;90733;-33
2023/04/08 10:01:03;;;;;;;;;;;7.70;99.90;;;;;;5019517;27;90167;-35
2023/04/08 10:03:33;;;;;;;;;;;7.70;99.90;;;;;;5020644;27;89454;-32
2023/04/08 10:06:00;;;;;;;;;;;7.60;99.90;;;;;;5020081;28;90672;-32
2023/04/08 10:08:26;;;;;;;;;;;7.80;99.90;;;;;;5018061;27;90662;-30
2023/04/08 10:10:52;;;;;;;;;;;7.90;99.90;;;;;;5019344;27;89117;-31
2023/04/08 10:13:18;;;;;;;;;;;7.80;99.90;;;;;;5019115;28;88797;-33
2023/04/08 10:15:46;;;;;;;;;;;7.90;99.90;;;;;;5019207;27;90116;-35
2023/04/08 10:18:21;;;;;;;;;;;7.90;99.90;;;;;;5013094;28;89354;-34
2023/04/08 10:20:47;;;;;;;;;;;7.90;99.90;;;;;;5010906;28;88910;-33
2023/04/08 10:23:14;;;;;;;;;;;8.00;99.90;;;;;;5017242;27;89779;-32
2023/04/08 10:25:43;;;;;;;;;;;8.30;99.90;;;;;;5018612;27;90170;-36
2023/04/08 10:28:12;;;;;;;;;;;8.20;99.90;;;;;;5012032;27;89192;-33
2023/04/08 10:30:38;;;;;;;;;;;8.40;99.90;;;;;;5000964;28;88914;-32
2023/04/08 10:33:12;;;;;;;;;;;8.40;99.90;;;;;;5002651;28;88643;-33
2023/04/08 10:35:41;;;;;;;;;;;8.40;99.90;;;;;;5019369;27;90530;-34
2023/04/08 10:38:06;;;;;;;;;;;8.40;99.90;;;;;;5019579;27;88491;-34
2023/04/08 10:40:40;;;;;;;;;;;8.30;99.90;;;;;;5019283;27;89623;-34
2023/04/08 10:43:06;;;;;;;;;;;8.30;99.90;;;;;;5019505;27;87720;-35
2023/04/08 10:45:31;;;;;;;;;;;8.40;99.90;;;;;;5017942;28;91114;-31
2023/04/08 10:48:09;;;;;;;;;;;8.50;99.90;;;;;;5018102;27;91167;-33
2023/04/08 10:50:35;;;;;;;;;;;8.50;99.90;;;;;;5019254;28;90448;-36
2023/04/08 10:53:01;;;;;;;;;;;8.50;99.90;;;;;;5019719;27;89084;-32
2023/04/08 10:55:27;;;;;;;;;;;8.40;99.90;;;;;;5018269;28;89839;-35
2023/04/08 10:57:53;;;;;;;;;;;8.40;99.90;;;;;;5019187;27;89806;-34
2023/04/08 11:00:35;;;;;;;;;;;8.40;99.90;;;;;;5018140;28;88974;-33
2023/04/08 11:03:08;;;;;;;;;;;8.40;99.90;;;;;;5019292;28;89010;-32
2023/04/08 11:05:34;;;;;;;;;;;8.40;99.90;;;;;;5010293;27;89714;-32
2023/04/08 11:08:00;;;;;;;;;;;8.50;99.90;;;;;;4998568;28;90110;-32
2023/04/08 11:10:26;;;;;;;;;;;8.60;99.90;;;;;;4999125;28;89486;-32
2023/04/08 11:12:55;;;;;;;;;;;8.60;99.90;;;;;;5001860;28;89024;-31
2023/04/08 11:15:21;;;;;;;;;;;8.50;99.90;;;;;;5010005;27;90134;-34
2023/04/08 11:17:47;;;;;;;;;;;8.70;99.90;;;;;;4998777;28;90918;-30
2023/04/08 11:20:13;;;;;;;;;;;8.70;99.90;;;;;;4998386;28;88903;-35
2023/04/08 11:22:38;;;;;;;;;;;8.70;99.90;;;;;;5015196;28;89340;-33
2023/04/08 11:25:07;;;;;;;;;;;8.70;99.90;;;;;;5011421;27;91211;-30
2023/04/08 11:27:33;;;;;;;;;;;8.70;99.90;;;;;;5005355;28;89259;-33
2023/04/08 11:29:59;;;;;;;;;;;8.60;99.90;;;;;;5003194;28;89376;-32
2023/04/08 11:32:24;;;;;;;;;;;8.80;99.90;;;;;;5006205;28;88002;-34
2023/04/08 11:34:51;;;;;;;;;;;8.80;99.90;;;;;;5003561;27;90147;-32
2023/04/08 11:37:17;;;;;;;;;;;8.80;99.90;;;;;;5005143;28;90725;-32
2023/04/08 11:39:43;;;;;;;;;;;8.80;99.90;;;;;;5003013;27;89290;-31
2023/04/08 11:42:09;;;;;;;;;;;8.80;99.90;;;;;;5005769;28;89499;-32
2023/04/08 11:44:35;;;;;;;;;;;8.90;99.90;;;;;;5002584;27;90266;-33
2023/04/08 11:47:01;;;;;;;;;;;8.80;99.90;;;;;;5004625;28;89133;-36
2023/04/08 11:49:27;;;;;;;;;;;8.90;99.90;;;;;;5003601;27;90146;-32
2023/04/08 11:51:54;;;;;;;;;;;8.90;99.90;;;;;;5005738;28;89479;-31
2023/04/08 11:54:27;;;;;;;;;;;8.90;99.90;;;;;;5002151;27;89784;-32
2023/04/08 11:56:53;;;;;;;;;;;9.00;99.90;;;;;;5004676;28;89334;-33
2023/04/08 11:59:19;;;;;;;;;;;9.00;99.90;;;;;;5002872;28;89801;-36
2023/04/08 12:04:23;;;;;;;;;;;9.00;99.90;;;;;;5021013;27;88362;-32
2023/04/08 12:06:49;;;;;;;;;;;8.90;99.90;;;;;;5024261;27;90072;-34
2023/04/08 12:09:15;;;;;;;;;;;9.00;99.90;;;;;;5022124;27;90055;-31
2023/04/08 12:11:40;;;;;;;;;;;9.10;99.90;;;;;;5021712;27;88770;-34
2023/04/08 12:14:06;;;;;;;;;;;9.00;99.90;;;;;;5014376;27;89736;-34
2023/04/08 12:16:32;;;;;;;;;;;9.00;99.90;;;;;;5022156;27;90230;-34
2023/04/08 12:18:57;;;;;;;;;;;8.90;99.90;;;;;;5025615;27;88908;-33
2023/04/08 12:21:23;;;;;;;;;;;9.10;99.90;;;;;;5028910;27;88762;-31
2023/04/08 12:23:48;;;;;;;;;;;9.00;99.90;;;;;;5029827;27;89742;-34
2023/04/08 12:26:14;;;;;;;;;;;9.10;99.90;;;;;;5024646;27;90937;-32
2023/04/08 12:28:39;;;;;;;;;;;9.10;99.90;;;;;;5037629;27;89759;-35
2023/04/08 12:31:05;;;;;;;;;;;9.10;99.90;;;;;;5038163;27;89492;-34
2023/04/08 12:33:30;;;;;;;;;;;9.20;99.90;;;;;;5026199;27;90461;-35
2023/04/08 12:35:59;;;;;;;;;;;9.00;99.90;;;;;;5017276;27;89385;-35
2023/04/08 12:38:28;;;;;;;;;;;8.90;99.90;;;;;;5018726;27;89922;-35
2023/04/08 12:40:54;;;;;;;;;;;8.90;99.90;;;;;;5018634;27;87699;-31
2023/04/08 12:43:19;;;;;;;;;;;9.10;99.90;;;;;;5018280;27;90112;-32
2023/04/08 12:45:45;;;;;;;;;;;9.10;99.90;;;;;;5018383;27;89549;-35
2023/04/08 12:48:11;;;;;;;;;;;9.20;99.90;;;;;;5017726;27;88714;-34
2023/04/08 12:50:36;;;;;;;;;;;9.20;99.90;;;;;;5018246;27;90272;-35
2023/04/08 12:53:02;;;;;;;;;;;9.30;99.90;;;;;;5018639;27;88876;-34
2023/04/08 12:55:27;;;;;;;;;;;9.20;99.90;;;;;;5018289;27;90800;-33
2023/04/08 12:57:53;;;;;;;;;;;9.20;99.90;;;;;;5018171;27;88485;-31
2023/04/08 13:00:18;;;;;;;;;;;9.20;99.90;;;;;;5021944;27;89761;-34
2023/04/08 13:02:44;;;;;;;;;;;9.20;99.90;;;;;;5017964;27;91027;-32
2023/04/08 13:05:10;;;;;;;;;;;9.20;99.90;;;;;;5018708;27;89642;-32
2023/04/08 13:07:35;;;;;;;;;;;9.40;99.90;;;;;;5017464;27;89005;-33
2023/04/08 13:10:02;;;;;;;;;;;9.30;99.90;;;;;;5018729;27;88811;-31
2023/04/08 13:12:28;;;;;;;;;;;9.10;99.90;;;;;;5018074;27;89595;-32
2023/04/08 13:14:54;;;;;;;;;;;9.30;99.90;;;;;;5018366;27;90009;-35
2023/04/08 13:17:19;;;;;;;;;;;9.30;99.90;;;;;;5018164;27;90288;-33
2023/04/08 13:19:46;;;;;;;;;;;9.40;99.90;;;;;;5017921;27;88471;-34
2023/04/08 13:22:13;;;;;;;;;;;9.50;99.90;;;;;;5029726;27;90652;-34
2023/04/08 13:24:38;;;;;;;;;;;9.40;99.90;;;;;;5036515;27;89568;-33
2023/04/08 13:27:04;;;;;;;;;;;9.40;99.90;;;;;;5036891;27;89072;-32
2023/04/08 13:29:30;;;;;;;;;;;9.50;99.90;;;;;;5032265;27;88273;-33
2023/04/08 13:31:55;;;;;;;;;;;9.50;99.90;;;;;;5030834;27;90664;-30
2023/04/08 13:34:20;;;;;;;;;;;9.60;99.90;;;;;;5040959;27;89889;-34
2023/04/08 13:36:46;;;;;;;;;;;9.50;99.90;;;;;;5039916;27;89751;-33
2023/04/08 13:39:11;;;;;;;;;;;9.60;99.90;;;;;;5040238;27;89504;-31
2023/04/08 13:41:37;;;;;;;;;;;9.50;99.90;;;;;;5040016;27;91204;-33
2023/04/08 13:44:02;;;;;;;;;;;9.60;99.90;;;;;;5038918;27;89698;-34
2023/04/08 13:46:28;;;;;;;;;;;9.60;99.90;;;;;;5039980;27;89165;-32
2023/04/08 13:48:53;;;;;;;;;;;9.60;99.90;;;;;;5039365;27;88784;-33
2023/04/08 13:51:19;;;;;;;;;;;9.60;99.90;;;;;;5040107;27;90052;-33
2023/04/08 13:53:45;;;;;;;;;;;9.60;99.90;;;;;;5038238;27;89630;-31
2023/04/08 13:56:10;;;;;;;;;;;9.70;99.90;;;;;;5040094;27;90300;-32
2023/04/08 13:58:36;;;;;;;;;;;9.70;99.90;;;;;;5038228;27;89770;-31
2023/04/08 14:01:01;;;;;;;;;;;9.70;99.90;;;;;;5039901;27;89925;-35
2023/04/08 14:03:27;;;;;;;;;;;9.80;99.90;;;;;;5037609;27;90878;-35
2023/04/08 14:05:52;;;;;;;;;;;9.70;99.90;;;;;;5039001;27;90148;-32
2023/04/08 14:08:23;;;;;;;;;;;9.70;99.90;;;;;;5039091;27;89578;-32
2023/04/08 14:10:54;;;;;;;;;;;9.80;99.90;;;;;;5039536;27;89634;-33
2023/04/08 14:13:20;;;;;;;;;;;9.70;99.90;;;;;;5038392;27;89715;-36
2023/04/08 14:15:45;;;;;;;;;;;9.70;99.90;;;;;;5038019;27;90731;-31
2023/04/08 14:18:12;;;;;;;;;;;9.70;99.90;;;;;;5038550;27;89692;-35
2023/04/08 14:20:37;;;;;;;;;;;9.70;99.90;;;;;;5039480;27;90233;-31
2023/04/08 14:23:03;;;;;;;;;;;9.70;99.90;;;;;;5032127;27;89684;-35
2023/04/08 14:25:28;;;;;;;;;;;9.80;99.90;;;;;;5020416;27;89270;-35
2023/04/08 14:27:54;;;;;;;;;;;9.70;99.90;;;;;;5019027;27;89470;-33